createdAt,value
2022-10-11T00:01:58.189Z,101365.19
2022-10-11T00:04:31.784Z,101363.47
2022-10-11T00:07:00.127Z,101360.09
2022-10-11T00:09:28.712Z,101363.91
2022-10-11T00:12:00.166Z,101373.84
2022-10-11T00:14:29.261Z,101371.41
2022-10-11T00:17:00.623Z,101368.88
2022-10-11T00:19:31.543Z,101362.78
2022-10-11T00:22:00.178Z,101364.50
2022-10-11T00:24:28.716Z,101353.00
2022-10-11T00:27:02.409Z,101358.53
2022-10-11T00:29:30.698Z,101359.66
2022-10-11T00:34:29.478Z,101362.25
2022-10-11T00:36:59.142Z,101356.44
2022-10-11T00:39:27.612Z,101362.09
2022-10-11T00:41:58.171Z,101362.38
2022-10-11T00:44:59.461Z,101361.94
2022-10-11T00:48:03.782Z,101357.69
2022-10-11T00:55:00.167Z,101352.44
2022-10-11T00:58:01.601Z,101354.72
2022-10-11T01:00:32.505Z,101350.16
2022-10-11T01:03:02.980Z,101352.72
2022-10-11T01:08:56.561Z,101358.63
2022-10-11T01:11:29.342Z,101359.56
2022-10-11T01:14:56.087Z,101362.81
2022-10-11T01:20:59.994Z,101366.13
2022-10-11T01:24:08.333Z,101359.47
2022-10-11T01:28:02.027Z,101360.97
2022-10-11T01:30:59.068Z,101369.00
2022-10-11T01:33:30.930Z,101365.28
2022-10-11T01:35:59.250Z,101368.38
2022-10-11T01:38:58.529Z,101354.50
2022-10-11T01:41:54.500Z,101358.22
2022-10-11T01:44:28.343Z,101355.25
2022-10-11T01:46:56.502Z,101356.75
2022-10-11T01:49:25.194Z,101360.81
2022-10-11T01:52:00.337Z,101349.59
2022-10-11T01:57:56.151Z,101365.53
2022-10-11T02:00:53.686Z,101369.41
2022-10-11T02:03:55.838Z,101375.06
2022-10-11T02:07:05.081Z,101372.28
2022-10-11T02:10:00.636Z,101382.41
2022-10-11T02:13:00.577Z,101373.91
2022-10-11T02:15:57.616Z,101377.47
2022-10-11T02:18:52.960Z,101387.75
2022-10-11T02:21:24.502Z,101390.81
2022-10-11T02:24:02.742Z,101392.16
2022-10-11T02:27:04.157Z,101400.59
2022-10-11T02:29:53.528Z,101408.66
2022-10-11T02:35:24.213Z,101416.00
2022-10-11T02:41:00.377Z,101429.16
2022-10-11T02:43:58.437Z,101436.50
2022-10-11T02:46:53.238Z,101433.31
2022-10-11T02:49:24.561Z,101438.81
2022-10-11T02:51:52.786Z,101447.06
2022-10-11T02:54:20.962Z,101450.09
2022-10-11T02:56:52.342Z,101457.16
2022-10-11T02:59:23.706Z,101453.75
2022-10-11T03:01:51.955Z,101455.84
2022-10-11T03:04:23.487Z,101459.34
2022-10-11T03:06:51.693Z,101455.94
2022-10-11T03:09:23.061Z,101452.53
2022-10-11T03:11:51.363Z,101450.94
2022-10-11T03:14:22.505Z,101452.06
2022-10-11T03:16:51.571Z,101456.19
2022-10-11T03:19:22.981Z,101460.06
2022-10-11T03:21:51.302Z,101457.00
2022-10-11T03:24:22.354Z,101451.88
2022-10-11T03:26:50.660Z,101456.53
2022-10-11T03:29:21.806Z,101457.59
2022-10-11T03:32:23.629Z,101458.28
2022-10-11T03:35:21.862Z,101458.09
2022-10-11T03:37:51.082Z,101458.41
2022-10-11T03:40:25.516Z,101466.81
2022-10-11T03:43:20.044Z,101468.75
2022-10-11T03:49:19.761Z,101463.13
2022-10-11T03:52:18.943Z,101468.00
2022-10-11T03:55:19.376Z,101463.81
2022-10-11T03:58:18.674Z,101472.81
2022-10-11T04:03:50.180Z,101461.28
2022-10-11T04:06:19.209Z,101466.22
2022-10-11T04:14:50.040Z,101479.84
2022-10-11T04:17:18.762Z,101477.31
2022-10-11T04:22:47.849Z,101485.38
2022-10-11T04:25:19.183Z,101473.81
2022-10-11T04:27:47.448Z,101477.69
2022-10-11T04:30:19.106Z,101481.44
2022-10-11T04:32:47.327Z,101491.31
2022-10-11T04:35:18.750Z,101478.75
2022-10-11T04:37:47.086Z,101479.75
2022-10-11T04:40:19.023Z,101483.38
2022-10-11T04:42:47.952Z,101486.50
2022-10-11T04:47:46.965Z,101486.78
2022-10-11T04:50:17.814Z,101485.63
2022-10-11T04:52:45.978Z,101484.75
2022-10-11T04:55:17.278Z,101484.22
2022-10-11T04:57:45.130Z,101488.28
2022-10-11T05:00:15.928Z,101501.88
2022-10-11T05:02:44.108Z,101493.00
2022-10-11T05:05:18.369Z,101499.31
2022-10-11T05:07:46.633Z,101499.50
2022-10-11T05:10:15.486Z,101498.78
2022-10-11T05:12:46.604Z,101493.44
2022-10-11T05:15:14.942Z,101495.47
2022-10-11T05:17:46.305Z,101498.25
2022-10-11T05:20:14.723Z,101494.81
2022-10-11T05:22:44.240Z,101491.41
2022-10-11T05:25:15.323Z,101498.91
2022-10-11T05:43:45.463Z,101498.91
2022-10-11T05:49:42.579Z,101497.41
2022-10-11T05:58:43.546Z,101497.69
2022-10-11T06:01:17.427Z,101498.41
2022-10-11T06:03:45.765Z,101494.56
2022-10-11T06:06:41.179Z,101494.75
2022-10-11T06:12:10.270Z,101498.81
2022-10-11T06:14:41.618Z,101501.91
2022-10-11T06:17:11.302Z,101502.22
2022-10-11T06:19:42.774Z,101496.88
2022-10-11T06:28:41.247Z,101499.81
2022-10-11T06:31:12.983Z,101515.84
2022-10-11T06:33:41.876Z,101520.44
2022-10-11T06:36:14.018Z,101520.53
2022-10-11T06:38:44.917Z,101525.78
2022-10-11T06:44:13.917Z,101521.19
2022-10-11T06:46:42.845Z,101523.94
2022-10-11T06:49:11.118Z,101522.25
2022-10-11T06:51:39.294Z,101522.38
2022-10-11T06:54:10.785Z,101524.25
2022-10-11T06:56:39.084Z,101524.25
2022-10-11T06:59:10.409Z,101518.19
2022-10-11T07:14:41.479Z,101523.88
2022-10-11T07:17:09.809Z,101522.25
2022-10-11T07:23:07.146Z,101524.53
2022-10-11T07:25:37.381Z,101520.56
2022-10-11T07:28:06.381Z,101521.72
2022-10-11T07:31:06.336Z,101522.56
2022-10-11T07:36:37.564Z,101531.63
2022-10-11T07:39:08.083Z,101524.00
2022-10-11T07:47:36.457Z,101537.72
2022-10-11T07:53:06.990Z,101539.50
2022-10-11T07:56:06.703Z,101524.19
2022-10-11T07:58:35.239Z,101520.94
2022-10-11T08:01:05.414Z,101518.47
2022-10-11T08:07:11.647Z,101515.91
2022-10-11T08:09:39.903Z,101526.69
2022-10-11T08:12:08.191Z,101525.72
2022-10-11T08:14:36.393Z,101520.41
2022-10-11T08:17:04.615Z,101523.16
2022-10-11T08:19:32.966Z,101517.16
2022-10-11T08:22:04.048Z,101522.78
2022-10-11T08:24:35.977Z,101519.53
2022-10-11T08:27:06.458Z,101526.78
2022-10-11T08:29:35.077Z,101515.47
2022-10-11T08:32:03.295Z,101529.84
2022-10-11T08:34:34.660Z,101531.53
2022-10-11T08:37:02.514Z,101527.47
2022-10-11T08:40:04.142Z,101532.59
2022-10-11T08:42:37.517Z,101534.66
2022-10-11T08:45:12.345Z,101537.34
2022-10-11T08:48:30.660Z,101529.44
2022-10-11T08:51:04.383Z,101538.47
2022-10-11T08:53:45.701Z,101530.28
2022-10-11T08:56:16.199Z,101530.47
2022-10-11T08:59:10.338Z,101534.78
2022-10-11T09:02:00.933Z,101537.53
2022-10-11T09:04:33.212Z,101539.16
2022-10-11T09:07:59.650Z,101538.78
2022-10-11T09:11:04.896Z,101544.00
2022-10-11T09:14:29.508Z,101545.72
2022-10-11T09:26:44.925Z,101543.81
2022-10-11T09:29:34.781Z,101554.47
2022-10-11T09:32:33.265Z,101555.44
2022-10-11T09:35:29.545Z,101547.53
2022-10-11T09:45:00.953Z,101554.22
2022-10-11T09:47:57.482Z,101555.44
2022-10-11T09:50:31.484Z,101548.47
2022-10-11T09:53:27.114Z,101543.06
2022-10-11T09:56:05.342Z,101550.09
2022-10-11T10:01:30.176Z,101544.19
2022-10-11T10:04:26.287Z,101540.47
2022-10-11T10:07:11.893Z,101538.84
2022-10-11T10:12:31.588Z,101530.31
2022-10-11T10:15:25.336Z,101530.22
2022-10-11T10:17:56.528Z,101525.13
2022-10-11T10:20:32.690Z,101518.13
2022-10-11T10:23:34.112Z,101526.84
2022-10-11T10:26:27.877Z,101513.63
2022-10-11T10:29:27.734Z,101512.19
2022-10-11T10:32:14.744Z,101513.50
2022-10-11T10:37:55.178Z,101532.06
2022-10-11T10:40:54.864Z,101541.88
2022-10-11T10:43:54.960Z,101536.38
2022-10-11T10:47:21.966Z,101534.28
2022-10-11T10:49:55.608Z,101540.66
2022-10-11T10:55:51.632Z,101542.34
2022-10-11T10:58:54.551Z,101538.06
2022-10-11T11:01:51.506Z,101543.09
2022-10-11T11:04:56.517Z,101540.16
2022-10-11T11:08:21.359Z,101540.34
2022-10-11T11:11:51.003Z,101551.19
2022-10-11T11:14:51.076Z,101561.56
2022-10-11T11:17:51.623Z,101556.91
2022-10-11T11:20:57.567Z,101563.69
2022-10-11T11:24:02.926Z,101568.66
2022-10-11T11:27:49.630Z,101553.59
2022-10-11T11:33:51.536Z,101546.63
2022-10-11T11:36:50.171Z,101546.81
2022-10-11T11:39:48.194Z,101555.94
2022-10-11T11:42:32.159Z,101541.88
2022-10-11T11:45:20.676Z,101539.31
2022-10-11T11:48:01.923Z,101548.25
2022-10-11T11:51:17.644Z,101549.97
2022-10-11T11:58:24.305Z,101551.69
2022-10-11T12:01:45.592Z,101542.81
2022-10-11T12:04:35.744Z,101551.00
2022-10-11T12:10:20.341Z,101551.50
2022-10-11T12:13:18.830Z,101547.88
2022-10-11T12:16:17.580Z,101538.44
2022-10-11T12:22:59.841Z,101549.72
2022-10-11T12:26:47.209Z,101555.53
2022-10-11T12:33:55.160Z,101549.78
2022-10-11T12:44:50.538Z,101549.66
2022-10-11T12:48:19.488Z,101553.41
2022-10-11T12:51:24.391Z,101563.94
2022-10-11T12:54:27.269Z,101566.72
2022-10-11T12:57:15.664Z,101558.75
2022-10-11T12:59:46.558Z,101557.78
2022-10-11T13:02:45.761Z,101566.72
2022-10-11T13:05:44.973Z,101562.94
2022-10-11T13:08:23.827Z,101576.06
2022-10-11T13:14:39.040Z,101590.66
2022-10-11T13:17:39.816Z,101586.09
2022-10-11T13:20:22.435Z,101581.53
2022-10-11T13:22:59.062Z,101571.59
2022-10-11T13:25:41.283Z,101583.06
2022-10-11T13:28:10.849Z,101582.16
2022-10-11T13:30:45.224Z,101583.16
2022-10-11T13:33:21.934Z,101584.19
2022-10-11T13:35:51.045Z,101592.06
2022-10-11T13:38:31.563Z,101596.41
2022-10-11T13:41:08.775Z,101593.09
2022-10-11T13:43:38.306Z,101600.13
2022-10-11T13:46:07.691Z,101596.31
2022-10-11T13:48:42.000Z,101603.19
2022-10-11T13:51:18.199Z,101602.06
2022-10-11T13:54:13.768Z,101598.44
2022-10-11T13:56:50.320Z,101603.75
2022-10-11T13:59:31.921Z,101605.47
2022-10-11T14:02:05.621Z,101610.81
2022-10-11T14:16:39.178Z,101627.47
2022-10-11T14:19:50.394Z,101621.16
2022-10-11T14:27:10.058Z,101631.72
2022-10-11T14:30:25.200Z,101621.06
2022-10-11T14:37:14.947Z,101627.75
2022-10-11T14:49:48.864Z,101628.53
2022-10-11T14:51:12.051Z,101636.63
2022-10-11T15:04:04.652Z,101653.19
2022-10-11T15:10:14.806Z,101654.63
2022-10-11T15:13:08.110Z,101654.44
2022-10-11T15:15:40.985Z,101651.78
2022-10-11T15:18:13.297Z,101660.75
2022-10-11T15:20:48.072Z,101670.44
2022-10-11T15:23:35.470Z,101671.31
2022-10-11T15:30:04.635Z,101678.44
2022-10-11T15:35:34.547Z,101680.06
2022-10-11T15:38:33.722Z,101679.13
2022-10-11T15:41:02.682Z,101680.75
2022-10-11T15:43:33.943Z,101690.53
2022-10-11T15:46:04.295Z,101684.34
2022-10-11T15:48:33.895Z,101685.13
2022-10-11T15:51:02.297Z,101691.97
2022-10-11T15:53:32.320Z,101698.09
2022-10-11T15:56:33.780Z,101701.44
2022-10-11T15:59:41.165Z,101706.66
2022-10-11T16:02:34.124Z,101705.63
2022-10-11T16:05:32.058Z,101700.09
2022-10-11T16:08:01.073Z,101705.16
2022-10-11T16:10:32.612Z,101693.47
2022-10-11T16:13:00.928Z,101697.75
2022-10-11T16:15:29.632Z,101693.06
2022-10-11T16:18:00.685Z,101698.22
2022-10-11T16:20:29.240Z,101695.75
2022-10-11T16:22:58.300Z,101704.78
2022-10-11T16:25:26.758Z,101695.66
2022-10-11T16:27:55.287Z,101700.78
2022-10-11T16:31:11.979Z,101702.91
2022-10-11T16:34:06.609Z,101703.09
2022-10-11T16:37:01.773Z,101701.56
2022-10-11T16:39:59.932Z,101697.25
2022-10-11T16:43:25.617Z,101700.00
2022-10-11T16:46:02.921Z,101707.06
2022-10-11T16:48:59.209Z,101704.97
2022-10-11T16:51:28.222Z,101701.38
2022-10-11T16:54:04.873Z,101704.88
2022-10-11T16:56:58.431Z,101703.09
2022-10-11T16:59:27.003Z,101703.94
2022-10-11T17:02:01.086Z,101705.94
2022-10-11T17:04:31.752Z,101707.41
2022-10-11T17:07:00.431Z,101709.78
2022-10-11T17:09:28.713Z,101708.47
2022-10-11T17:11:56.951Z,101715.91
2022-10-11T17:14:25.212Z,101703.81
2022-10-11T17:16:53.943Z,101710.69
2022-10-11T17:19:25.486Z,101708.94
2022-10-11T17:21:53.725Z,101717.72
2022-10-11T17:24:22.063Z,101720.03
2022-10-11T17:26:52.834Z,101723.13
2022-10-11T17:29:22.084Z,101726.09
2022-10-11T17:31:50.447Z,101725.41
2022-10-11T17:34:19.421Z,101714.88
2022-10-11T17:36:50.829Z,101727.47
2022-10-11T17:39:21.873Z,101724.72
2022-10-11T17:41:52.908Z,101718.31
2022-10-11T17:44:24.625Z,101716.00
2022-10-11T17:46:52.925Z,101708.97
2022-10-11T17:49:24.367Z,101717.22
2022-10-11T17:54:50.234Z,101703.66
2022-10-11T17:57:26.009Z,101695.97
2022-10-11T18:00:11.969Z,101715.25
2022-10-11T18:03:21.280Z,101701.41
2022-10-11T18:05:52.915Z,101704.94
2022-10-11T18:08:24.119Z,101702.22
2022-10-11T18:10:51.962Z,101700.69
2022-10-11T18:13:21.014Z,101694.13
2022-10-11T18:15:53.682Z,101693.72
2022-10-11T18:18:22.288Z,101697.41
2022-10-11T18:20:51.525Z,101694.03
2022-10-11T18:23:20.654Z,101698.72
2022-10-11T18:25:52.473Z,101690.09
2022-10-11T18:28:20.716Z,101693.19
2022-10-11T18:30:51.443Z,101686.28
2022-10-11T18:33:19.759Z,101688.28
2022-10-11T18:35:51.095Z,101687.81
2022-10-11T18:38:19.975Z,101687.84
2022-10-11T18:40:49.303Z,101693.56
2022-10-11T18:43:20.675Z,101692.13
2022-10-11T18:45:51.208Z,101689.56
2022-10-11T18:48:19.558Z,101684.81
2022-10-11T18:50:51.100Z,101678.09
2022-10-11T18:53:19.266Z,101688.00
2022-10-11T18:55:48.471Z,101683.00
2022-10-11T18:58:25.950Z,101691.19
2022-10-11T19:00:54.265Z,101684.13
2022-10-11T19:06:19.400Z,101675.31
2022-10-11T19:08:52.718Z,101667.38
2022-10-11T19:11:29.491Z,101663.59
2022-10-11T19:14:03.229Z,101662.38
2022-10-11T19:16:34.993Z,101661.13
2022-10-11T19:19:03.538Z,101665.63
2022-10-11T19:21:32.183Z,101651.53
2022-10-11T19:24:09.859Z,101656.88
2022-10-11T19:26:44.419Z,101646.00
2022-10-11T19:29:21.694Z,101647.44
2022-10-11T19:31:53.206Z,101656.72
2022-10-11T19:34:23.470Z,101649.50
2022-10-11T19:36:53.639Z,101653.19
2022-10-11T19:39:23.645Z,101644.50
2022-10-11T19:41:54.335Z,101636.50
2022-10-11T19:44:28.857Z,101641.34
2022-10-11T19:47:04.950Z,101639.63
2022-10-11T19:49:43.669Z,101643.78
2022-10-11T19:52:17.581Z,101648.63
2022-10-11T19:54:48.627Z,101630.84
2022-10-11T19:57:16.921Z,101625.41
2022-10-11T19:59:46.532Z,101625.41
2022-10-11T20:02:16.040Z,101625.97
2022-10-11T20:04:52.371Z,101621.59
2022-10-11T20:07:26.109Z,101622.56
2022-10-11T20:09:54.353Z,101613.50
2022-10-11T20:12:35.279Z,101614.22
2022-10-11T20:15:17.566Z,101607.25
2022-10-11T20:17:52.707Z,101604.56
2022-10-11T20:20:30.492Z,101594.94
2022-10-11T20:22:59.403Z,101596.63
2022-10-11T20:25:28.348Z,101591.56
2022-10-11T20:27:56.840Z,101590.47
2022-10-11T20:30:44.398Z,101578.88
2022-10-11T20:33:15.586Z,101580.16
2022-10-11T20:35:44.024Z,101586.00
2022-10-11T20:38:15.317Z,101581.34
2022-10-11T20:40:43.580Z,101578.78
2022-10-11T20:43:14.707Z,101568.44
2022-10-11T20:45:43.387Z,101570.38
2022-10-11T20:48:11.998Z,101565.53
2022-10-11T20:50:46.573Z,101571.47
2022-10-11T20:53:16.445Z,101569.56
2022-10-11T20:56:14.996Z,101569.97
2022-10-11T20:58:55.664Z,101555.81
2022-10-11T21:01:48.963Z,101548.19
2022-10-11T21:04:32.921Z,101539.81
2022-10-11T21:10:06.768Z,101540.69
2022-10-11T21:13:11.909Z,101541.53
2022-10-11T21:16:13.617Z,101534.84
2022-10-11T21:18:42.130Z,101531.19
2022-10-11T21:25:11.684Z,101526.84
2022-10-11T21:28:10.981Z,101532.34
2022-10-11T21:33:33.043Z,101522.16
2022-10-11T21:36:18.196Z,101515.38
2022-10-11T21:44:39.906Z,101539.91
2022-10-11T21:47:11.819Z,101533.78
2022-10-11T21:50:14.159Z,101542.00
2022-10-11T21:52:42.486Z,101537.19
2022-10-11T21:55:17.213Z,101544.97
2022-10-11T21:58:14.779Z,101549.63
2022-10-11T22:01:18.038Z,101541.63
2022-10-11T22:04:36.440Z,101536.78
2022-10-11T22:07:22.264Z,101534.25
2022-10-11T22:10:14.225Z,101534.66
2022-10-11T22:12:42.590Z,101533.59
2022-10-11T22:15:11.352Z,101539.41
2022-10-11T22:17:42.538Z,101532.69
2022-10-11T22:20:11.545Z,101534.78
2022-10-11T22:23:21.686Z,101540.81
2022-10-11T22:26:16.231Z,101543.41
2022-10-11T22:39:41.305Z,101537.50
2022-10-11T23:32:06.692Z,101538.09
2022-10-11T23:35:06.157Z,101535.41
2022-10-11T23:38:17.440Z,101538.50
2022-10-11T23:40:52.011Z,101540.69
2022-10-11T23:43:35.736Z,101528.59
2022-10-11T23:46:06.734Z,101540.78
2022-10-11T23:53:02.141Z,101540.81
